createdAt,value
2023-06-18T00:00:35.998Z,365.00
2023-06-18T00:01:36.095Z,362.00
2023-06-18T00:02:36.051Z,363.00
2023-06-18T00:03:36.117Z,363.00
2023-06-18T00:04:36.072Z,363.00
2023-06-18T00:05:36.085Z,363.00
2023-06-18T00:06:36.088Z,363.00
2023-06-18T00:07:36.116Z,366.00
2023-06-18T00:08:36.146Z,365.00
2023-06-18T00:09:36.139Z,367.00
2023-06-18T00:10:36.174Z,367.00
2023-06-18T00:11:36.185Z,366.00
2023-06-18T00:12:36.196Z,365.00
2023-06-18T00:13:36.203Z,365.00
2023-06-18T00:14:36.262Z,365.00
2023-06-18T00:15:36.302Z,365.00
2023-06-18T00:16:36.244Z,369.00
2023-06-18T00:17:36.298Z,369.00
2023-06-18T00:18:36.293Z,372.00
2023-06-18T00:19:36.313Z,373.00
2023-06-18T00:20:36.326Z,371.00
2023-06-18T00:21:36.322Z,369.00
2023-06-18T00:22:36.335Z,365.00
2023-06-18T00:23:36.371Z,367.00
2023-06-18T00:24:36.484Z,366.00
2023-06-18T00:25:36.419Z,370.00
2023-06-18T00:26:36.435Z,369.00
2023-06-18T00:27:36.439Z,370.00
2023-06-18T00:28:36.450Z,371.00
2023-06-18T00:29:36.476Z,371.00
2023-06-18T00:30:36.488Z,370.00
2023-06-18T00:31:36.542Z,371.00
2023-06-18T00:32:36.563Z,370.00
2023-06-18T00:33:36.548Z,369.00
2023-06-18T00:34:36.572Z,368.00
2023-06-18T00:35:36.611Z,366.00
2023-06-18T00:36:36.637Z,365.00
2023-06-18T00:37:36.661Z,364.00
2023-06-18T00:38:36.667Z,364.00
2023-06-18T00:39:36.701Z,365.00
2023-06-18T00:40:36.695Z,365.00
2023-06-18T00:41:36.711Z,365.00
2023-06-18T00:42:36.760Z,366.00
2023-06-18T00:43:36.766Z,365.00
2023-06-18T00:44:36.816Z,367.00
2023-06-18T00:45:36.814Z,370.00
2023-06-18T00:46:36.913Z,368.00
2023-06-18T00:47:36.856Z,367.00
2023-06-18T00:48:36.885Z,367.00
2023-06-18T00:49:36.906Z,367.00
2023-06-18T00:50:36.956Z,368.00
2023-06-18T00:51:36.934Z,369.00
2023-06-18T00:52:36.978Z,370.00
2023-06-18T00:53:36.988Z,366.00
2023-06-18T00:54:37.022Z,366.00
2023-06-18T00:55:37.041Z,365.00
2023-06-18T00:56:37.079Z,368.00
2023-06-18T00:57:37.094Z,369.00
2023-06-18T00:58:37.126Z,367.00
2023-06-18T00:59:37.150Z,368.00
2023-06-18T01:00:37.165Z,368.00
2023-06-18T01:01:37.251Z,370.00
2023-06-18T01:02:41.500Z,372.00
2023-06-18T01:03:37.252Z,372.00
2023-06-18T01:04:37.225Z,372.00
2023-06-18T01:05:37.200Z,372.00
2023-06-18T01:06:37.175Z,371.00
2023-06-18T01:07:40.005Z,368.00
2023-06-18T01:08:38.171Z,369.00
2023-06-18T01:09:37.142Z,367.00
2023-06-18T01:10:37.131Z,367.00
2023-06-18T01:11:37.143Z,366.00
2023-06-18T01:12:37.124Z,366.00
2023-06-18T01:13:37.107Z,367.00
2023-06-18T01:14:37.228Z,365.00
2023-06-18T01:15:37.119Z,364.00
2023-06-18T01:16:37.254Z,366.00
2023-06-18T01:17:37.110Z,365.00
2023-06-18T01:18:37.094Z,365.00
2023-06-18T01:19:37.073Z,365.00
2023-06-18T01:20:37.065Z,364.00
2023-06-18T01:21:37.057Z,367.00
2023-06-18T01:22:37.067Z,367.00
2023-06-18T01:23:37.064Z,367.00
2023-06-18T01:24:37.073Z,367.00
2023-06-18T01:25:37.033Z,367.00
2023-06-18T01:26:37.058Z,368.00
2023-06-18T01:27:37.016Z,365.00
2023-06-18T01:28:37.060Z,365.00
2023-06-18T01:29:37.042Z,364.00
2023-06-18T01:30:37.101Z,364.00
2023-06-18T01:31:37.089Z,363.00
2023-06-18T01:32:37.191Z,363.00
2023-06-18T01:33:37.149Z,365.00
2023-06-18T01:34:37.173Z,366.00
2023-06-18T01:35:37.192Z,369.00
2023-06-18T01:36:37.211Z,368.00
2023-06-18T01:37:37.232Z,370.00
2023-06-18T01:38:37.244Z,370.00
2023-06-18T01:39:37.277Z,369.00
2023-06-18T01:40:37.316Z,370.00
2023-06-18T01:41:37.321Z,371.00
2023-06-18T01:42:37.339Z,370.00
2023-06-18T01:43:37.379Z,370.00
2023-06-18T01:44:37.378Z,371.00
2023-06-18T01:45:37.410Z,371.00
2023-06-18T01:46:37.548Z,372.00
2023-06-18T01:47:37.490Z,372.00
2023-06-18T01:48:37.473Z,370.00
2023-06-18T01:49:37.510Z,369.00
2023-06-18T01:50:37.515Z,366.00
2023-06-18T01:51:37.543Z,365.00
2023-06-18T01:52:37.565Z,365.00
2023-06-18T01:53:37.565Z,366.00
2023-06-18T01:54:37.592Z,366.00
2023-06-18T01:55:37.626Z,366.00
2023-06-18T01:56:37.649Z,367.00
2023-06-18T01:57:37.653Z,369.00
2023-06-18T01:58:37.683Z,369.00
2023-06-18T01:59:37.694Z,368.00
2023-06-18T02:00:37.730Z,369.00
2023-06-18T02:01:37.740Z,369.00
2023-06-18T02:02:37.821Z,369.00
2023-06-18T02:03:37.862Z,370.00
2023-06-18T02:04:37.816Z,371.00
2023-06-18T02:05:37.827Z,374.00
2023-06-18T02:06:37.855Z,373.00
2023-06-18T02:07:37.861Z,372.00
2023-06-18T02:08:37.891Z,370.00
2023-06-18T02:09:37.928Z,370.00
2023-06-18T02:10:37.962Z,369.00
2023-06-18T02:11:37.964Z,372.00
2023-06-18T02:12:37.985Z,373.00
2023-06-18T02:13:38.004Z,375.00
2023-06-18T02:14:38.034Z,377.00
2023-06-18T02:15:38.064Z,377.00
2023-06-18T02:16:38.070Z,375.00
2023-06-18T02:17:38.117Z,373.00
2023-06-18T02:18:38.109Z,375.00
2023-06-18T02:19:38.160Z,374.00
2023-06-18T02:20:38.167Z,373.00
2023-06-18T02:21:38.174Z,375.00
2023-06-18T02:22:38.199Z,375.00
2023-06-18T02:23:38.225Z,377.00
2023-06-18T02:24:38.366Z,378.00
2023-06-18T02:25:38.275Z,379.00
2023-06-18T02:26:38.305Z,381.00
2023-06-18T02:27:38.338Z,383.00
2023-06-18T02:28:38.347Z,381.00
2023-06-18T02:29:38.390Z,383.00
2023-06-18T02:30:38.419Z,385.00
2023-06-18T02:31:38.445Z,387.00
2023-06-18T02:32:38.508Z,387.00
2023-06-18T02:33:38.481Z,386.00
2023-06-18T02:34:38.526Z,387.00
2023-06-18T02:35:38.545Z,384.00
2023-06-18T02:36:38.575Z,382.00
2023-06-18T02:37:38.591Z,383.00
2023-06-18T02:38:38.627Z,382.00
2023-06-18T02:39:38.648Z,384.00
2023-06-18T02:40:38.672Z,384.00
2023-06-18T02:41:38.728Z,383.00
2023-06-18T02:42:38.738Z,383.00
2023-06-18T02:43:38.750Z,381.00
2023-06-18T02:44:38.798Z,383.00
2023-06-18T02:45:38.815Z,384.00
2023-06-18T02:46:38.893Z,384.00
2023-06-18T02:47:38.925Z,385.00
2023-06-18T02:48:38.898Z,385.00
2023-06-18T02:49:38.949Z,387.00
2023-06-18T02:50:38.964Z,386.00
2023-06-18T02:51:39.016Z,387.00
2023-06-18T02:52:39.033Z,387.00
2023-06-18T02:53:39.063Z,386.00
2023-06-18T02:54:39.086Z,384.00
2023-06-18T02:55:39.139Z,382.00
2023-06-18T02:56:39.158Z,382.00
2023-06-18T02:57:39.192Z,381.00
2023-06-18T02:58:39.222Z,382.00
2023-06-18T02:59:39.239Z,383.00
2023-06-18T03:00:39.320Z,380.00
2023-06-18T03:01:39.312Z,381.00
2023-06-18T03:02:39.396Z,380.00
2023-06-18T03:03:39.364Z,382.00
2023-06-18T03:04:39.463Z,382.00
2023-06-18T03:05:39.454Z,382.00
2023-06-18T03:06:39.476Z,382.00
2023-06-18T03:07:39.525Z,383.00
2023-06-18T03:08:39.541Z,384.00
2023-06-18T03:09:39.589Z,385.00
2023-06-18T03:10:39.614Z,384.00
2023-06-18T03:11:39.645Z,385.00
2023-06-18T03:12:39.695Z,384.00
2023-06-18T03:13:39.738Z,383.00
2023-06-18T03:14:39.795Z,383.00
2023-06-18T03:15:39.825Z,384.00
2023-06-18T03:16:39.948Z,383.00
2023-06-18T03:17:39.925Z,383.00
2023-06-18T03:18:39.940Z,386.00
2023-06-18T03:19:39.975Z,384.00
2023-06-18T03:20:40.015Z,381.00
2023-06-18T03:21:40.067Z,383.00
2023-06-18T03:22:40.115Z,382.00
2023-06-18T03:23:40.134Z,380.00
2023-06-18T03:24:40.222Z,378.00
2023-06-18T03:25:40.234Z,377.00
2023-06-18T03:26:40.256Z,378.00
2023-06-18T03:27:40.309Z,380.00
2023-06-18T03:28:40.343Z,380.00
2023-06-18T03:29:40.404Z,380.00
2023-06-18T03:30:40.436Z,379.00
2023-06-18T03:31:40.454Z,381.00
2023-06-18T03:32:40.514Z,381.00
2023-06-18T03:33:40.528Z,380.00
2023-06-18T03:34:40.564Z,381.00
2023-06-18T03:35:40.626Z,380.00
2023-06-18T03:36:40.658Z,381.00
2023-06-18T03:37:40.681Z,382.00
2023-06-18T03:38:40.744Z,380.00
2023-06-18T03:39:40.786Z,381.00
2023-06-18T03:40:40.801Z,378.00
2023-06-18T03:41:40.849Z,377.00
2023-06-18T03:42:40.896Z,376.00
2023-06-18T03:43:40.931Z,377.00
2023-06-18T03:44:40.963Z,378.00
2023-06-18T03:45:40.998Z,379.00
2023-06-18T03:46:41.105Z,376.00
2023-06-18T03:47:41.109Z,377.00
2023-06-18T03:48:41.120Z,375.00
2023-06-18T03:49:41.168Z,377.00
2023-06-18T03:50:41.188Z,377.00
2023-06-18T03:51:41.218Z,378.00
2023-06-18T03:52:41.263Z,379.00
2023-06-18T03:53:41.303Z,380.00
2023-06-18T03:54:41.406Z,381.00
2023-06-18T03:55:41.369Z,385.00
2023-06-18T03:56:41.400Z,385.00
2023-06-18T03:57:41.443Z,385.00
2023-06-18T03:58:41.458Z,382.00
2023-06-18T03:59:41.508Z,378.00
2023-06-18T04:00:41.539Z,376.00
2023-06-18T04:01:41.633Z,376.00
2023-06-18T04:02:41.725Z,375.00
2023-06-18T04:03:41.683Z,372.00
2023-06-18T04:04:41.687Z,373.00
2023-06-18T04:05:41.709Z,373.00
2023-06-18T04:06:41.766Z,375.00
2023-06-18T04:07:41.791Z,375.00
2023-06-18T04:08:41.842Z,375.00
2023-06-18T04:09:41.841Z,375.00
2023-06-18T04:10:41.884Z,373.00
2023-06-18T04:11:41.913Z,373.00
2023-06-18T04:12:42.016Z,376.00
2023-06-18T04:13:41.985Z,375.00
2023-06-18T04:14:42.040Z,377.00
2023-06-18T04:15:42.082Z,379.00
2023-06-18T04:16:42.127Z,380.00
2023-06-18T04:17:42.179Z,380.00
2023-06-18T04:18:42.164Z,382.00
2023-06-18T04:19:42.226Z,383.00
2023-06-18T04:20:42.237Z,382.00
2023-06-18T04:21:42.265Z,384.00
2023-06-18T04:22:42.312Z,385.00
2023-06-18T04:23:42.345Z,383.00
2023-06-18T04:24:42.387Z,384.00
2023-06-18T04:25:42.417Z,381.00
2023-06-18T04:26:42.455Z,381.00
2023-06-18T04:27:42.470Z,384.00
2023-06-18T04:28:42.529Z,384.00
2023-06-18T04:29:42.552Z,386.00
2023-06-18T04:30:42.597Z,387.00
2023-06-18T04:31:42.623Z,387.00
2023-06-18T04:32:42.706Z,385.00
2023-06-18T04:33:42.672Z,385.00
2023-06-18T04:34:42.701Z,386.00
2023-06-18T04:35:42.765Z,383.00
2023-06-18T04:36:42.756Z,384.00
2023-06-18T04:37:42.799Z,384.00
2023-06-18T04:38:42.794Z,384.00
2023-06-18T04:39:42.852Z,384.00
2023-06-18T04:40:42.894Z,385.00
2023-06-18T04:41:42.917Z,382.00
2023-06-18T04:42:42.940Z,382.00
2023-06-18T04:43:42.965Z,386.00
2023-06-18T04:44:42.994Z,390.00
2023-06-18T04:45:43.045Z,388.00
2023-06-18T04:46:43.118Z,387.00
2023-06-18T04:47:43.155Z,389.00
2023-06-18T04:48:43.187Z,389.00
2023-06-18T04:49:43.246Z,387.00
2023-06-18T04:50:43.343Z,387.00
2023-06-18T04:51:43.375Z,389.00
2023-06-18T04:52:43.467Z,389.00
2023-06-18T04:53:43.441Z,389.00
2023-06-18T04:54:43.466Z,389.00
2023-06-18T04:55:43.482Z,389.00
2023-06-18T04:56:43.503Z,389.00
2023-06-18T04:57:43.532Z,390.00
2023-06-18T04:58:43.553Z,388.00
2023-06-18T04:59:43.588Z,386.00
2023-06-18T05:00:43.626Z,385.00
2023-06-18T05:01:43.668Z,384.00
2023-06-18T05:02:43.759Z,385.00
2023-06-18T05:03:43.844Z,384.00
2023-06-18T05:04:43.792Z,385.00
2023-06-18T05:05:43.823Z,382.00
2023-06-18T05:06:43.858Z,384.00
2023-06-18T05:07:43.873Z,384.00
2023-06-18T05:08:43.902Z,384.00
2023-06-18T05:09:43.903Z,383.00
2023-06-18T05:10:43.929Z,381.00
2023-06-18T05:11:43.930Z,384.00
2023-06-18T05:12:43.942Z,384.00
2023-06-18T05:13:43.961Z,386.00
2023-06-18T05:14:43.988Z,385.00
2023-06-18T05:15:44.030Z,385.00
2023-06-18T05:16:44.084Z,383.00
2023-06-18T05:17:44.164Z,384.00
2023-06-18T05:18:44.130Z,385.00
2023-06-18T05:19:44.168Z,386.00
2023-06-18T05:20:44.192Z,385.00
2023-06-18T05:21:44.286Z,385.00
2023-06-18T05:22:44.255Z,386.00
2023-06-18T05:23:44.280Z,386.00
2023-06-18T05:24:44.324Z,386.00
2023-06-18T05:25:44.355Z,384.00
2023-06-18T05:26:44.396Z,383.00
2023-06-18T05:27:44.412Z,385.00
2023-06-18T05:28:44.478Z,386.00
2023-06-18T05:29:44.519Z,385.00
2023-06-18T05:30:44.591Z,386.00
2023-06-18T05:31:44.655Z,386.00
2023-06-18T05:32:44.857Z,387.00
2023-06-18T05:33:44.765Z,384.00
2023-06-18T05:34:44.819Z,385.00
2023-06-18T05:35:44.886Z,384.00
2023-06-18T05:36:44.934Z,379.00
2023-06-18T05:37:44.994Z,380.00
2023-06-18T05:38:45.068Z,379.00
2023-06-18T05:39:45.124Z,380.00
2023-06-18T05:40:45.167Z,379.00
2023-06-18T05:41:45.246Z,379.00
2023-06-18T05:42:45.285Z,380.00
2023-06-18T05:43:45.357Z,383.00
2023-06-18T05:44:45.398Z,380.00
2023-06-18T05:45:45.474Z,380.00
2023-06-18T05:46:45.654Z,380.00
2023-06-18T05:47:45.654Z,382.00
2023-06-18T05:48:45.639Z,383.00
2023-06-18T05:49:45.700Z,383.00
2023-06-18T05:50:45.759Z,381.00
2023-06-18T05:51:45.815Z,380.00
2023-06-18T05:52:45.861Z,385.00
2023-06-18T05:53:45.901Z,382.00
2023-06-18T05:54:45.978Z,385.00
2023-06-18T05:55:46.006Z,384.00
2023-06-18T05:56:46.055Z,384.00
2023-06-18T05:57:46.121Z,384.00
2023-06-18T05:58:46.164Z,386.00
2023-06-18T05:59:46.219Z,387.00
2023-06-18T06:00:46.256Z,386.00
2023-06-18T06:01:46.324Z,386.00
2023-06-18T06:02:46.431Z,385.00
2023-06-18T06:03:46.451Z,384.00
2023-06-18T06:04:47.142Z,383.00
2023-06-18T06:05:46.498Z,381.00
2023-06-18T06:06:46.539Z,379.00
2023-06-18T06:07:46.560Z,375.00
2023-06-18T06:08:46.613Z,374.00
2023-06-18T06:09:46.658Z,371.00
2023-06-18T06:10:46.681Z,371.00
2023-06-18T06:11:46.704Z,373.00
2023-06-18T06:12:46.736Z,372.00
2023-06-18T06:13:46.781Z,372.00
2023-06-18T06:14:46.804Z,376.00
2023-06-18T06:15:47.018Z,374.00
2023-06-18T06:16:46.876Z,372.00
2023-06-18T06:17:46.947Z,371.00
2023-06-18T06:18:46.920Z,370.00
2023-06-18T06:19:46.947Z,370.00
2023-06-18T06:20:46.982Z,369.00
2023-06-18T06:21:46.990Z,367.00
2023-06-18T06:22:47.010Z,365.00
2023-06-18T06:23:47.028Z,364.00
2023-06-18T06:24:47.083Z,364.00
2023-06-18T06:25:47.092Z,364.00
2023-06-18T06:26:47.122Z,366.00
2023-06-18T06:27:47.131Z,368.00
2023-06-18T06:28:47.147Z,371.00
2023-06-18T06:29:47.155Z,373.00
2023-06-18T06:30:47.190Z,373.00
2023-06-18T06:31:47.194Z,370.00
2023-06-18T06:32:47.253Z,369.00
2023-06-18T06:33:47.220Z,369.00
2023-06-18T06:34:47.254Z,369.00
2023-06-18T06:35:47.259Z,370.00
2023-06-18T06:36:47.272Z,371.00
2023-06-18T06:37:47.297Z,371.00
2023-06-18T06:38:47.311Z,372.00
2023-06-18T06:39:47.304Z,372.00
2023-06-18T06:40:47.325Z,371.00
2023-06-18T06:41:47.307Z,369.00
2023-06-18T06:42:47.295Z,369.00
2023-06-18T06:43:47.325Z,367.00
2023-06-18T06:44:47.322Z,368.00
2023-06-18T06:45:47.414Z,366.00
2023-06-18T06:46:47.316Z,363.00
2023-06-18T06:47:47.384Z,365.00
2023-06-18T06:48:47.327Z,367.00
2023-06-18T06:49:47.316Z,370.00
2023-06-18T06:50:47.321Z,371.00
2023-06-18T06:51:47.336Z,371.00
2023-06-18T06:52:47.350Z,372.00
2023-06-18T06:53:48.498Z,371.00
2023-06-18T06:54:47.330Z,367.00
2023-06-18T06:55:47.348Z,364.00
2023-06-18T06:56:47.348Z,365.00
2023-06-18T06:57:47.340Z,365.00
2023-06-18T06:58:47.341Z,364.00
2023-06-18T06:59:47.350Z,364.00
2023-06-18T07:00:47.458Z,367.00
2023-06-18T07:01:47.449Z,364.00
2023-06-18T07:02:47.596Z,364.00
2023-06-18T07:03:47.554Z,363.00
2023-06-18T07:04:47.563Z,365.00
2023-06-18T07:05:47.551Z,365.00
2023-06-18T07:06:47.564Z,366.00
2023-06-18T07:07:47.624Z,366.00
2023-06-18T07:08:47.685Z,366.00
2023-06-18T07:09:47.717Z,365.00
2023-06-18T07:10:47.782Z,363.00
2023-06-18T07:11:47.830Z,363.00
2023-06-18T07:12:47.901Z,360.00
2023-06-18T07:13:47.986Z,356.00
2023-06-18T07:14:48.019Z,355.00
2023-06-18T07:15:48.094Z,354.00
2023-06-18T07:16:48.188Z,352.00
2023-06-18T07:17:48.235Z,352.00
2023-06-18T07:18:48.235Z,354.00
2023-06-18T07:19:48.326Z,355.00
2023-06-18T07:20:48.361Z,354.00
2023-06-18T07:21:48.446Z,353.00
2023-06-18T07:22:48.480Z,354.00
2023-06-18T07:23:48.548Z,355.00
2023-06-18T07:24:48.589Z,357.00
2023-06-18T07:25:48.655Z,356.00
2023-06-18T07:26:48.705Z,356.00
2023-06-18T07:27:48.761Z,359.00
2023-06-18T07:28:48.819Z,361.00
2023-06-18T07:29:48.865Z,364.00
2023-06-18T07:30:48.918Z,364.00
2023-06-18T07:31:48.964Z,362.00
2023-06-18T07:32:49.078Z,361.00
2023-06-18T07:33:49.069Z,356.00
2023-06-18T07:34:49.108Z,355.00
2023-06-18T07:35:49.179Z,355.00
2023-06-18T07:36:49.224Z,355.00
2023-06-18T07:37:49.267Z,352.00
2023-06-18T07:38:49.322Z,351.00
2023-06-18T07:39:49.365Z,352.00
2023-06-18T07:40:49.406Z,348.00
2023-06-18T07:41:49.436Z,344.00
2023-06-18T07:42:49.474Z,342.00
2023-06-18T07:43:49.519Z,346.00
2023-06-18T07:44:49.555Z,351.00
2023-06-18T07:45:49.613Z,351.00
2023-06-18T07:46:49.696Z,351.00
2023-06-18T07:47:49.713Z,351.00
2023-06-18T07:48:49.744Z,350.00
2023-06-18T07:49:49.802Z,350.00
2023-06-18T07:50:49.829Z,353.00
2023-06-18T07:51:49.870Z,354.00
2023-06-18T07:52:49.899Z,352.00
2023-06-18T07:53:49.925Z,352.00
2023-06-18T07:54:49.973Z,355.00
2023-06-18T07:55:50.049Z,356.00
2023-06-18T07:56:50.061Z,356.00
2023-06-18T07:57:50.107Z,359.00
2023-06-18T07:58:50.117Z,358.00
2023-06-18T07:59:50.149Z,357.00
2023-06-18T08:00:50.198Z,358.00
2023-06-18T08:01:50.283Z,357.00
2023-06-18T08:02:50.291Z,355.00
2023-06-18T08:03:50.315Z,358.00
2023-06-18T08:04:50.305Z,356.00
2023-06-18T08:05:50.361Z,352.00
2023-06-18T08:06:50.382Z,350.00
2023-06-18T08:07:50.410Z,349.00
2023-06-18T08:08:50.455Z,350.00
2023-06-18T08:09:50.478Z,349.00
2023-06-18T08:10:50.502Z,353.00
2023-06-18T08:11:50.568Z,355.00
2023-06-18T08:12:50.553Z,354.00
2023-06-18T08:13:50.581Z,356.00
2023-06-18T08:14:50.612Z,354.00
2023-06-18T08:15:50.677Z,355.00
2023-06-18T08:16:50.673Z,356.00
2023-06-18T08:17:50.705Z,357.00
2023-06-18T08:18:50.804Z,357.00
2023-06-18T08:19:50.762Z,356.00
2023-06-18T08:20:50.766Z,356.00
2023-06-18T08:21:50.815Z,355.00
2023-06-18T08:22:50.811Z,355.00
2023-06-18T08:23:50.861Z,356.00
2023-06-18T08:24:50.876Z,358.00
2023-06-18T08:25:50.883Z,356.00
2023-06-18T08:26:50.955Z,355.00
2023-06-18T08:27:50.935Z,354.00
2023-06-18T08:28:50.983Z,351.00
2023-06-18T08:29:51.016Z,348.00
2023-06-18T08:30:51.034Z,352.00
2023-06-18T08:31:51.047Z,352.00
2023-06-18T08:32:52.124Z,352.00
2023-06-18T08:33:51.079Z,350.00
2023-06-18T08:34:51.123Z,350.00
2023-06-18T08:35:51.151Z,350.00
2023-06-18T08:36:51.156Z,349.00
2023-06-18T08:37:51.180Z,349.00
2023-06-18T08:38:51.208Z,351.00
2023-06-18T08:39:51.226Z,353.00
2023-06-18T08:40:51.247Z,354.00
2023-06-18T08:41:51.256Z,355.00
2023-06-18T08:43:02.486Z,353.00
2023-06-18T08:43:52.272Z,356.00
2023-06-18T08:44:51.252Z,356.00
2023-06-18T08:45:51.285Z,357.00
2023-06-18T08:46:51.243Z,354.00
2023-06-18T08:47:51.248Z,354.00
2023-06-18T08:48:51.280Z,354.00
2023-06-18T08:49:51.218Z,352.00
2023-06-18T08:50:51.198Z,355.00
2023-06-18T08:51:51.203Z,353.00
2023-06-18T08:52:51.185Z,352.00
2023-06-18T08:53:51.177Z,352.00
2023-06-18T08:54:51.163Z,351.00
2023-06-18T08:55:51.162Z,348.00
2023-06-18T08:56:51.175Z,347.00
2023-06-18T08:57:51.148Z,346.00
2023-06-18T08:58:51.152Z,346.00
2023-06-18T08:59:51.143Z,347.00
2023-06-18T09:00:51.124Z,348.00
2023-06-18T09:01:51.126Z,348.00
2023-06-18T09:02:51.244Z,348.00
2023-06-18T09:03:51.114Z,349.00
2023-06-18T09:04:51.165Z,349.00
2023-06-18T09:05:51.140Z,350.00
2023-06-18T09:06:51.080Z,349.00
2023-06-18T09:07:51.086Z,349.00
2023-06-18T09:08:51.082Z,346.00
2023-06-18T09:09:51.066Z,348.00
2023-06-18T09:10:51.069Z,345.00
2023-06-18T09:11:51.069Z,347.00
2023-06-18T09:12:51.046Z,347.00
2023-06-18T09:13:51.053Z,351.00
2023-06-18T09:14:51.115Z,349.00
2023-06-18T09:15:51.079Z,348.00
2023-06-18T09:16:51.236Z,346.00
2023-06-18T09:17:51.143Z,345.00
2023-06-18T09:18:51.111Z,346.00
2023-06-18T09:19:51.151Z,346.00
2023-06-18T09:20:51.140Z,346.00
2023-06-18T09:21:51.141Z,346.00
2023-06-18T09:22:51.164Z,344.00
2023-06-18T09:23:51.164Z,344.00
2023-06-18T09:24:51.152Z,344.00
2023-06-18T09:25:51.185Z,346.00
2023-06-18T09:26:51.173Z,346.00
2023-06-18T09:27:51.192Z,347.00
2023-06-18T09:28:51.204Z,344.00
2023-06-18T09:29:51.228Z,343.00
2023-06-18T09:30:51.235Z,343.00
2023-06-18T09:31:51.222Z,343.00
2023-06-18T09:32:51.262Z,340.00
2023-06-18T09:33:51.254Z,341.00
2023-06-18T09:34:51.294Z,341.00
2023-06-18T09:35:51.254Z,343.00
2023-06-18T09:36:51.295Z,341.00
2023-06-18T09:37:51.269Z,342.00
2023-06-18T09:38:51.283Z,346.00
2023-06-18T09:39:51.291Z,343.00
2023-06-18T09:40:51.325Z,343.00
2023-06-18T09:41:51.334Z,341.00
2023-06-18T09:42:51.325Z,341.00
2023-06-18T09:43:51.339Z,341.00
2023-06-18T09:44:51.361Z,341.00
2023-06-18T09:45:51.383Z,341.00
2023-06-18T09:46:51.515Z,339.00
2023-06-18T09:47:51.457Z,337.00
2023-06-18T09:48:51.450Z,336.00
2023-06-18T09:49:51.415Z,339.00
2023-06-18T09:50:51.434Z,341.00
2023-06-18T09:51:51.443Z,342.00
2023-06-18T09:52:51.473Z,344.00
2023-06-18T09:53:51.443Z,341.00
2023-06-18T09:54:51.470Z,343.00
2023-06-18T09:55:51.487Z,345.00
2023-06-18T09:56:51.495Z,342.00
2023-06-18T09:57:51.501Z,340.00
2023-06-18T09:58:51.527Z,340.00
2023-06-18T09:59:51.516Z,341.00
2023-06-18T10:00:51.627Z,341.00
2023-06-18T10:01:51.580Z,342.00
2023-06-18T10:02:51.591Z,344.00
2023-06-18T10:03:51.630Z,345.00
2023-06-18T10:04:51.554Z,345.00
2023-06-18T10:05:51.581Z,346.00
2023-06-18T10:06:51.612Z,347.00
2023-06-18T10:07:51.594Z,349.00
2023-06-18T10:08:51.628Z,348.00
2023-06-18T10:09:51.608Z,349.00
2023-06-18T10:10:51.619Z,350.00
2023-06-18T10:11:51.638Z,351.00
2023-06-18T10:12:51.627Z,352.00
2023-06-18T10:13:51.654Z,352.00
2023-06-18T10:14:51.648Z,352.00
2023-06-18T10:15:51.705Z,350.00
2023-06-18T10:16:51.661Z,349.00
2023-06-18T10:17:51.682Z,349.00
2023-06-18T10:18:51.676Z,348.00
2023-06-18T10:19:51.676Z,350.00
2023-06-18T10:20:51.704Z,345.00
2023-06-18T10:21:51.718Z,346.00
2023-06-18T10:22:51.731Z,347.00
2023-06-18T10:23:51.738Z,346.00
2023-06-18T10:24:51.748Z,347.00
2023-06-18T10:25:51.729Z,347.00
2023-06-18T10:26:51.737Z,345.00
2023-06-18T10:27:51.750Z,346.00
2023-06-18T10:28:51.766Z,347.00
2023-06-18T10:29:51.769Z,347.00
2023-06-18T10:30:51.767Z,345.00
2023-06-18T10:31:51.791Z,344.00
2023-06-18T10:32:51.846Z,342.00
2023-06-18T10:33:51.821Z,342.00
2023-06-18T10:34:51.839Z,342.00
2023-06-18T10:35:51.857Z,343.00
2023-06-18T10:36:51.856Z,342.00
2023-06-18T10:37:51.853Z,345.00
2023-06-18T10:38:51.866Z,344.00
2023-06-18T10:39:51.880Z,345.00
2023-06-18T10:40:51.890Z,345.00
2023-06-18T10:41:51.898Z,345.00
2023-06-18T10:42:51.910Z,346.00
2023-06-18T10:43:51.943Z,345.00
2023-06-18T10:44:51.938Z,346.00
2023-06-18T10:45:51.989Z,345.00
2023-06-18T10:46:51.959Z,344.00
2023-06-18T10:47:52.007Z,345.00
2023-06-18T10:48:51.973Z,345.00
2023-06-18T10:49:51.973Z,346.00
2023-06-18T10:50:51.989Z,343.00
2023-06-18T10:51:52.004Z,343.00
2023-06-18T10:52:52.038Z,345.00
2023-06-18T10:53:52.035Z,343.00
2023-06-18T10:54:52.062Z,341.00
2023-06-18T10:55:52.030Z,344.00
2023-06-18T10:56:52.061Z,345.00
2023-06-18T10:57:52.047Z,346.00
2023-06-18T10:58:52.064Z,343.00
2023-06-18T10:59:52.068Z,343.00
2023-06-18T11:00:52.079Z,341.00
2023-06-18T11:01:52.098Z,340.00
2023-06-18T11:02:52.246Z,341.00
2023-06-18T11:03:52.156Z,343.00
2023-06-18T11:04:52.131Z,340.00
2023-06-18T11:05:52.127Z,341.00
2023-06-18T11:06:52.147Z,341.00
2023-06-18T11:07:52.136Z,339.00
2023-06-18T11:08:52.150Z,340.00
2023-06-18T11:09:52.157Z,342.00
2023-06-18T11:10:52.177Z,344.00
2023-06-18T11:11:52.192Z,345.00
2023-06-18T11:12:52.201Z,343.00
2023-06-18T11:13:52.201Z,347.00
2023-06-18T11:14:52.219Z,349.00
2023-06-18T11:15:52.232Z,346.00
2023-06-18T11:16:52.237Z,343.00
2023-06-18T11:17:52.272Z,342.00
2023-06-18T11:18:52.360Z,342.00
2023-06-18T11:19:52.274Z,341.00
2023-06-18T11:20:52.294Z,340.00
2023-06-18T11:21:52.296Z,340.00
2023-06-18T11:22:52.288Z,341.00
2023-06-18T11:23:52.347Z,341.00
2023-06-18T11:24:52.346Z,340.00
2023-06-18T11:25:52.328Z,338.00
2023-06-18T11:26:52.351Z,338.00
2023-06-18T11:27:52.373Z,335.00
2023-06-18T11:28:52.353Z,335.00
2023-06-18T11:29:52.382Z,336.00
2023-06-18T11:30:52.438Z,334.00
2023-06-18T11:31:52.396Z,335.00
2023-06-18T11:32:52.498Z,333.00
2023-06-18T11:33:52.405Z,333.00
2023-06-18T11:34:52.419Z,334.00
2023-06-18T11:35:52.454Z,335.00
2023-06-18T11:36:52.475Z,339.00
2023-06-18T11:37:52.464Z,336.00
2023-06-18T11:38:52.482Z,334.00
2023-06-18T11:39:52.492Z,333.00
2023-06-18T11:40:52.504Z,331.00
2023-06-18T11:41:52.513Z,330.00
2023-06-18T11:42:52.571Z,331.00
2023-06-18T11:43:52.626Z,333.00
2023-06-18T11:44:52.541Z,332.00
2023-06-18T11:45:52.545Z,333.00
2023-06-18T11:46:52.677Z,333.00
2023-06-18T11:47:52.624Z,332.00
2023-06-18T11:48:52.608Z,334.00
2023-06-18T11:49:52.620Z,332.00
2023-06-18T11:50:52.624Z,332.00
2023-06-18T11:51:52.610Z,334.00
2023-06-18T11:52:52.626Z,338.00
2023-06-18T11:53:52.653Z,337.00
2023-06-18T11:54:52.660Z,335.00
2023-06-18T11:55:52.657Z,334.00
2023-06-18T11:56:52.664Z,334.00
2023-06-18T11:57:52.725Z,336.00
2023-06-18T11:58:54.111Z,335.00
2023-06-18T11:59:52.717Z,337.00
2023-06-18T12:00:52.674Z,336.00
2023-06-18T12:01:52.710Z,336.00
2023-06-18T12:02:52.731Z,334.00
2023-06-18T12:03:52.674Z,335.00
2023-06-18T12:04:52.653Z,336.00
2023-06-18T12:05:52.641Z,338.00
2023-06-18T12:06:52.643Z,338.00
2023-06-18T12:07:52.631Z,338.00
2023-06-18T12:08:52.627Z,334.00
2023-06-18T12:09:52.643Z,335.00
2023-06-18T12:10:53.046Z,335.00
2023-06-18T12:11:52.612Z,334.00
2023-06-18T12:12:52.661Z,334.00
2023-06-18T12:13:52.584Z,334.00
2023-06-18T12:14:52.575Z,334.00
2023-06-18T12:15:52.577Z,336.00
2023-06-18T12:16:53.224Z,337.00
2023-06-18T12:17:52.610Z,336.00
2023-06-18T12:18:52.555Z,337.00
2023-06-18T12:19:52.536Z,339.00
2023-06-18T12:20:52.545Z,339.00
2023-06-18T12:21:52.539Z,334.00
2023-06-18T12:22:52.521Z,334.00
2023-06-18T12:23:52.664Z,332.00
2023-06-18T12:24:52.501Z,332.00
2023-06-18T12:25:52.508Z,337.00
2023-06-18T12:26:52.493Z,339.00
2023-06-18T12:27:52.482Z,338.00
2023-06-18T12:28:52.483Z,338.00